sensor_id;sensor_type;location;lat;lon;timestamp;temperature;humidity
67379;DHT22;54262;44.642;-0.974;2023-01-28T00:00:05;5.20;77.30
67379;DHT22;54262;44.642;-0.974;2023-01-28T00:02:34;5.30;76.70
67379;DHT22;54262;44.642;-0.974;2023-01-28T00:05:00;5.20;77.20
67379;DHT22;54262;44.642;-0.974;2023-01-28T00:07:26;5.50;77.10
67379;DHT22;54262;44.642;-0.974;2023-01-28T00:09:52;5.30;76.80
67379;DHT22;54262;44.642;-0.974;2023-01-28T00:12:18;5.60;78.00
67379;DHT22;54262;44.642;-0.974;2023-01-28T00:14:43;5.30;76.90
67379;DHT22;54262;44.642;-0.974;2023-01-28T00:17:11;5.30;77.70
67379;DHT22;54262;44.642;-0.974;2023-01-28T00:19:36;5.50;76.40
67379;DHT22;54262;44.642;-0.974;2023-01-28T00:22:02;5.20;77.00
67379;DHT22;54262;44.642;-0.974;2023-01-28T00:24:29;5.10;77.10
67379;DHT22;54262;44.642;-0.974;2023-01-28T00:26:54;5.10;77.60
67379;DHT22;54262;44.642;-0.974;2023-01-28T00:29:20;5.10;77.70
67379;DHT22;54262;44.642;-0.974;2023-01-28T00:31:46;5.00;77.80
67379;DHT22;54262;44.642;-0.974;2023-01-28T00:34:12;5.00;77.70
67379;DHT22;54262;44.642;-0.974;2023-01-28T00:36:38;5.00;77.80
67379;DHT22;54262;44.642;-0.974;2023-01-28T00:39:05;5.00;77.70
67379;DHT22;54262;44.642;-0.974;2023-01-28T00:41:31;5.00;77.80
67379;DHT22;54262;44.642;-0.974;2023-01-28T00:43:57;5.00;78.30
67379;DHT22;54262;44.642;-0.974;2023-01-28T00:46:26;5.10;77.30
67379;DHT22;54262;44.642;-0.974;2023-01-28T00:48:52;5.10;77.50
67379;DHT22;54262;44.642;-0.974;2023-01-28T00:51:19;5.10;77.80
67379;DHT22;54262;44.642;-0.974;2023-01-28T00:53:45;5.00;77.50
67379;DHT22;54262;44.642;-0.974;2023-01-28T00:56:15;5.20;77.60
67379;DHT22;54262;44.642;-0.974;2023-01-28T00:58:42;5.20;76.80
67379;DHT22;54262;44.642;-0.974;2023-01-28T01:01:20;5.00;77.60
67379;DHT22;54262;44.642;-0.974;2023-01-28T01:03:46;4.90;78.30
67379;DHT22;54262;44.642;-0.974;2023-01-28T01:06:14;4.90;79.20
67379;DHT22;54262;44.642;-0.974;2023-01-28T01:08:40;4.90;80.10
67379;DHT22;54262;44.642;-0.974;2023-01-28T01:11:08;4.90;79.70
67379;DHT22;54262;44.642;-0.974;2023-01-28T01:13:35;4.80;80.70
67379;DHT22;54262;44.642;-0.974;2023-01-28T01:16:09;4.90;82.10
67379;DHT22;54262;44.642;-0.974;2023-01-28T01:18:36;4.70;81.90
67379;DHT22;54262;44.642;-0.974;2023-01-28T01:21:08;4.90;82.30
67379;DHT22;54262;44.642;-0.974;2023-01-28T01:23:34;4.70;82.60
67379;DHT22;54262;44.642;-0.974;2023-01-28T01:26:00;4.60;84.50
67379;DHT22;54262;44.642;-0.974;2023-01-28T01:28:26;4.50;84.10
67379;DHT22;54262;44.642;-0.974;2023-01-28T01:30:58;4.50;84.00
67379;DHT22;54262;44.642;-0.974;2023-01-28T01:33:24;4.50;84.40
67379;DHT22;54262;44.642;-0.974;2023-01-28T01:35:54;4.90;82.80
67379;DHT22;54262;44.642;-0.974;2023-01-28T01:38:19;4.90;82.00
67379;DHT22;54262;44.642;-0.974;2023-01-28T01:40:46;4.60;83.70
67379;DHT22;54262;44.642;-0.974;2023-01-28T01:43:19;4.60;83.90
67379;DHT22;54262;44.642;-0.974;2023-01-28T01:45:58;4.50;84.00
67379;DHT22;54262;44.642;-0.974;2023-01-28T01:48:32;4.50;85.30
67379;DHT22;54262;44.642;-0.974;2023-01-28T01:51:01;4.60;83.80
67379;DHT22;54262;44.642;-0.974;2023-01-28T01:53:30;4.50;84.10
67379;DHT22;54262;44.642;-0.974;2023-01-28T01:56:01;4.50;84.50
67379;DHT22;54262;44.642;-0.974;2023-01-28T01:58:31;4.50;84.80
67379;DHT22;54262;44.642;-0.974;2023-01-28T02:00:58;4.50;84.30
67379;DHT22;54262;44.642;-0.974;2023-01-28T02:04:18;4.50;84.70
67379;DHT22;54262;44.642;-0.974;2023-01-28T02:06:18;4.40;84.90
67379;DHT22;54262;44.642;-0.974;2023-01-28T02:08:44;4.50;84.20
67379;DHT22;54262;44.642;-0.974;2023-01-28T02:11:11;4.60;83.80
67379;DHT22;54262;44.642;-0.974;2023-01-28T02:13:41;5.10;82.90
67379;DHT22;54262;44.642;-0.974;2023-01-28T02:16:08;5.00;81.70
67379;DHT22;54262;44.642;-0.974;2023-01-28T02:18:34;4.70;81.50
67379;DHT22;54262;44.642;-0.974;2023-01-28T02:21:09;4.70;81.70
67379;DHT22;54262;44.642;-0.974;2023-01-28T02:24:07;5.20;78.60
67379;DHT22;54262;44.642;-0.974;2023-01-28T02:32:21;4.90;82.00
67379;DHT22;54262;44.642;-0.974;2023-01-28T02:35:00;4.80;80.80
67379;DHT22;54262;44.642;-0.974;2023-01-28T02:37:33;4.60;80.20
67379;DHT22;54262;44.642;-0.974;2023-01-28T02:40:07;4.50;80.90
67379;DHT22;54262;44.642;-0.974;2023-01-28T02:42:36;4.50;80.70
67379;DHT22;54262;44.642;-0.974;2023-01-28T02:45:06;4.60;80.10
67379;DHT22;54262;44.642;-0.974;2023-01-28T02:47:36;4.60;80.20
67379;DHT22;54262;44.642;-0.974;2023-01-28T02:50:21;4.70;79.90
67379;DHT22;54262;44.642;-0.974;2023-01-28T02:55:53;4.60;78.70
67379;DHT22;54262;44.642;-0.974;2023-01-28T02:58:42;4.70;79.00
67379;DHT22;54262;44.642;-0.974;2023-01-28T03:04:17;4.70;78.10
67379;DHT22;54262;44.642;-0.974;2023-01-28T03:06:49;4.60;78.70
67379;DHT22;54262;44.642;-0.974;2023-01-28T03:09:16;4.70;77.80
67379;DHT22;54262;44.642;-0.974;2023-01-28T03:14:38;5.80;82.90
67379;DHT22;54262;44.642;-0.974;2023-01-28T03:17:44;6.00;72.80
67379;DHT22;54262;44.642;-0.974;2023-01-28T03:26:28;5.00;75.40
67379;DHT22;54262;44.642;-0.974;2023-01-28T03:29:14;4.80;76.90
67379;DHT22;54262;44.642;-0.974;2023-01-28T03:32:00;4.70;77.80
67379;DHT22;54262;44.642;-0.974;2023-01-28T03:34:45;4.60;75.80
67379;DHT22;54262;44.642;-0.974;2023-01-28T03:37:31;4.90;76.10
67379;DHT22;54262;44.642;-0.974;2023-01-28T03:40:02;4.70;76.30
67379;DHT22;54262;44.642;-0.974;2023-01-28T03:42:29;4.70;75.30
67379;DHT22;54262;44.642;-0.974;2023-01-28T03:44:55;4.50;76.90
67379;DHT22;54262;44.642;-0.974;2023-01-28T03:47:24;4.80;74.80
67379;DHT22;54262;44.642;-0.974;2023-01-28T03:49:51;4.80;76.30
67379;DHT22;54262;44.642;-0.974;2023-01-28T03:52:20;4.60;75.50
67379;DHT22;54262;44.642;-0.974;2023-01-28T03:54:46;4.60;75.70
67379;DHT22;54262;44.642;-0.974;2023-01-28T03:57:17;4.60;73.90
67379;DHT22;54262;44.642;-0.974;2023-01-28T03:59:43;4.60;75.50
67379;DHT22;54262;44.642;-0.974;2023-01-28T04:02:10;4.70;74.00
67379;DHT22;54262;44.642;-0.974;2023-01-28T04:04:37;4.80;74.00
67379;DHT22;54262;44.642;-0.974;2023-01-28T04:07:03;4.60;74.60
67379;DHT22;54262;44.642;-0.974;2023-01-28T04:09:29;4.60;74.80
67379;DHT22;54262;44.642;-0.974;2023-01-28T04:11:55;5.00;76.60
67379;DHT22;54262;44.642;-0.974;2023-01-28T04:14:20;4.70;74.40
67379;DHT22;54262;44.642;-0.974;2023-01-28T04:16:46;4.50;75.20
67379;DHT22;54262;44.642;-0.974;2023-01-28T04:19:12;4.70;74.50
67379;DHT22;54262;44.642;-0.974;2023-01-28T04:21:38;4.80;74.20
67379;DHT22;54262;44.642;-0.974;2023-01-28T04:24:04;4.70;73.90
67379;DHT22;54262;44.642;-0.974;2023-01-28T04:26:30;4.70;73.80
67379;DHT22;54262;44.642;-0.974;2023-01-28T04:28:56;4.60;75.10
67379;DHT22;54262;44.642;-0.974;2023-01-28T04:31:22;4.50;75.30
67379;DHT22;54262;44.642;-0.974;2023-01-28T04:33:48;4.50;74.10
67379;DHT22;54262;44.642;-0.974;2023-01-28T04:36:14;4.70;75.30
67379;DHT22;54262;44.642;-0.974;2023-01-28T04:38:43;4.50;74.10
67379;DHT22;54262;44.642;-0.974;2023-01-28T04:41:09;4.50;74.00
67379;DHT22;54262;44.642;-0.974;2023-01-28T04:43:35;4.50;75.30
67379;DHT22;54262;44.642;-0.974;2023-01-28T04:46:01;4.50;75.20
67379;DHT22;54262;44.642;-0.974;2023-01-28T04:48:26;4.80;75.30
67379;DHT22;54262;44.642;-0.974;2023-01-28T04:50:55;5.00;72.50
67379;DHT22;54262;44.642;-0.974;2023-01-28T04:53:20;5.00;73.60
67379;DHT22;54262;44.642;-0.974;2023-01-28T04:55:46;5.00;72.10
67379;DHT22;54262;44.642;-0.974;2023-01-28T04:58:12;4.90;73.00
67379;DHT22;54262;44.642;-0.974;2023-01-28T05:00:38;4.60;73.10
67379;DHT22;54262;44.642;-0.974;2023-01-28T05:03:03;4.60;73.30
67379;DHT22;54262;44.642;-0.974;2023-01-28T05:05:29;5.50;78.30
67379;DHT22;54262;44.642;-0.974;2023-01-28T05:07:56;5.90;69.20
67379;DHT22;54262;44.642;-0.974;2023-01-28T05:10:24;5.20;70.40
67379;DHT22;54262;44.642;-0.974;2023-01-28T05:12:49;5.10;73.00
67379;DHT22;54262;44.642;-0.974;2023-01-28T05:15:16;4.60;72.70
67379;DHT22;54262;44.642;-0.974;2023-01-28T05:17:42;4.50;73.30
67379;DHT22;54262;44.642;-0.974;2023-01-28T05:20:09;4.80;73.10
67379;DHT22;54262;44.642;-0.974;2023-01-28T05:22:35;4.60;72.70
67379;DHT22;54262;44.642;-0.974;2023-01-28T05:25:01;4.50;73.00
67379;DHT22;54262;44.642;-0.974;2023-01-28T05:27:29;4.60;72.70
67379;DHT22;54262;44.642;-0.974;2023-01-28T05:29:55;4.50;72.90
67379;DHT22;54262;44.642;-0.974;2023-01-28T05:32:21;5.00;70.20
67379;DHT22;54262;44.642;-0.974;2023-01-28T05:34:46;4.70;71.20
67379;DHT22;54262;44.642;-0.974;2023-01-28T05:37:12;4.40;72.60
67379;DHT22;54262;44.642;-0.974;2023-01-28T05:39:38;4.40;73.50
67379;DHT22;54262;44.642;-0.974;2023-01-28T05:42:03;4.40;73.50
67379;DHT22;54262;44.642;-0.974;2023-01-28T05:44:29;4.40;73.70
67379;DHT22;54262;44.642;-0.974;2023-01-28T05:46:55;4.60;72.00
67379;DHT22;54262;44.642;-0.974;2023-01-28T05:49:20;4.80;74.00
67379;DHT22;54262;44.642;-0.974;2023-01-28T05:51:46;4.50;72.90
67379;DHT22;54262;44.642;-0.974;2023-01-28T05:54:13;4.90;76.50
67379;DHT22;54262;44.642;-0.974;2023-01-28T05:56:38;4.70;72.90
67379;DHT22;54262;44.642;-0.974;2023-01-28T05:59:05;4.60;73.30
67379;DHT22;54262;44.642;-0.974;2023-01-28T06:01:31;4.70;73.90
67379;DHT22;54262;44.642;-0.974;2023-01-28T06:03:56;4.70;72.20
67379;DHT22;54262;44.642;-0.974;2023-01-28T06:06:23;4.80;72.40
67379;DHT22;54262;44.642;-0.974;2023-01-28T06:08:49;4.60;73.70
67379;DHT22;54262;44.642;-0.974;2023-01-28T06:11:14;4.40;73.10
67379;DHT22;54262;44.642;-0.974;2023-01-28T06:13:40;4.40;74.90
67379;DHT22;54262;44.642;-0.974;2023-01-28T06:16:06;4.60;73.00
67379;DHT22;54262;44.642;-0.974;2023-01-28T06:18:32;4.40;73.90
67379;DHT22;54262;44.642;-0.974;2023-01-28T06:20:58;4.40;75.10
67379;DHT22;54262;44.642;-0.974;2023-01-28T06:23:24;4.40;75.30
67379;DHT22;54262;44.642;-0.974;2023-01-28T06:25:53;4.50;75.30
67379;DHT22;54262;44.642;-0.974;2023-01-28T06:28:19;4.40;74.40
67379;DHT22;54262;44.642;-0.974;2023-01-28T06:30:48;4.50;73.60
67379;DHT22;54262;44.642;-0.974;2023-01-28T06:33:14;4.40;74.30
67379;DHT22;54262;44.642;-0.974;2023-01-28T06:35:39;4.50;75.10
67379;DHT22;54262;44.642;-0.974;2023-01-28T06:38:05;5.20;71.30
67379;DHT22;54262;44.642;-0.974;2023-01-28T06:40:31;4.60;73.90
67379;DHT22;54262;44.642;-0.974;2023-01-28T06:42:56;4.60;76.30
67379;DHT22;54262;44.642;-0.974;2023-01-28T06:45:22;4.40;74.60
67379;DHT22;54262;44.642;-0.974;2023-01-28T06:47:48;4.30;75.10
67379;DHT22;54262;44.642;-0.974;2023-01-28T06:50:13;4.30;75.60
67379;DHT22;54262;44.642;-0.974;2023-01-28T06:52:39;4.50;76.20
67379;DHT22;54262;44.642;-0.974;2023-01-28T06:55:06;4.50;74.40
67379;DHT22;54262;44.642;-0.974;2023-01-28T06:57:32;4.30;75.60
67379;DHT22;54262;44.642;-0.974;2023-01-28T06:59:58;4.50;75.30
67379;DHT22;54262;44.642;-0.974;2023-01-28T07:02:23;4.30;75.90
67379;DHT22;54262;44.642;-0.974;2023-01-28T07:04:49;4.50;75.10
67379;DHT22;54262;44.642;-0.974;2023-01-28T07:07:15;4.40;75.80
67379;DHT22;54262;44.642;-0.974;2023-01-28T07:09:40;4.30;75.80
67379;DHT22;54262;44.642;-0.974;2023-01-28T07:12:06;4.40;76.90
67379;DHT22;54262;44.642;-0.974;2023-01-28T07:14:32;4.40;76.70
67379;DHT22;54262;44.642;-0.974;2023-01-28T07:16:57;4.40;76.00
67379;DHT22;54262;44.642;-0.974;2023-01-28T07:19:23;4.30;77.20
67379;DHT22;54262;44.642;-0.974;2023-01-28T07:21:49;4.30;76.50
67379;DHT22;54262;44.642;-0.974;2023-01-28T07:24:14;4.30;76.90
67379;DHT22;54262;44.642;-0.974;2023-01-28T07:26:40;4.60;77.40
67379;DHT22;54262;44.642;-0.974;2023-01-28T07:29:07;4.80;79.90
67379;DHT22;54262;44.642;-0.974;2023-01-28T07:31:32;4.50;75.60
67379;DHT22;54262;44.642;-0.974;2023-01-28T07:33:58;4.90;75.00
67379;DHT22;54262;44.642;-0.974;2023-01-28T07:36:24;4.60;75.90
67379;DHT22;54262;44.642;-0.974;2023-01-28T07:38:49;4.40;76.80
67379;DHT22;54262;44.642;-0.974;2023-01-28T07:41:15;4.80;75.70
67379;DHT22;54262;44.642;-0.974;2023-01-28T07:43:40;4.50;76.60
67379;DHT22;54262;44.642;-0.974;2023-01-28T07:46:06;4.30;76.60
67379;DHT22;54262;44.642;-0.974;2023-01-28T07:48:32;4.30;77.30
67379;DHT22;54262;44.642;-0.974;2023-01-28T07:50:58;4.40;76.80
67379;DHT22;54262;44.642;-0.974;2023-01-28T07:53:24;4.30;77.10
67379;DHT22;54262;44.642;-0.974;2023-01-28T07:55:50;5.10;78.70
67379;DHT22;54262;44.642;-0.974;2023-01-28T07:58:15;4.50;76.40
67379;DHT22;54262;44.642;-0.974;2023-01-28T08:00:41;4.50;78.20
67379;DHT22;54262;44.642;-0.974;2023-01-28T08:03:12;4.60;78.50
67379;DHT22;54262;44.642;-0.974;2023-01-28T08:05:46;4.50;77.50
67379;DHT22;54262;44.642;-0.974;2023-01-28T08:08:12;5.30;77.30
67379;DHT22;54262;44.642;-0.974;2023-01-28T08:10:38;4.90;74.90
67379;DHT22;54262;44.642;-0.974;2023-01-28T08:13:05;4.90;75.90
67379;DHT22;54262;44.642;-0.974;2023-01-28T08:15:31;4.60;76.50
67379;DHT22;54262;44.642;-0.974;2023-01-28T08:17:58;4.50;77.10
67379;DHT22;54262;44.642;-0.974;2023-01-28T08:20:27;4.50;77.90
67379;DHT22;54262;44.642;-0.974;2023-01-28T08:23:02;4.50;77.40
67379;DHT22;54262;44.642;-0.974;2023-01-28T08:25:28;4.40;77.30
67379;DHT22;54262;44.642;-0.974;2023-01-28T08:27:54;4.80;78.50
67379;DHT22;54262;44.642;-0.974;2023-01-28T08:30:19;4.80;76.10
67379;DHT22;54262;44.642;-0.974;2023-01-28T08:32:45;4.70;76.70
67379;DHT22;54262;44.642;-0.974;2023-01-28T08:35:11;4.70;76.60
67379;DHT22;54262;44.642;-0.974;2023-01-28T08:37:37;4.80;76.40
67379;DHT22;54262;44.642;-0.974;2023-01-28T08:40:03;4.60;76.90
67379;DHT22;54262;44.642;-0.974;2023-01-28T08:42:29;5.20;75.70
67379;DHT22;54262;44.642;-0.974;2023-01-28T08:44:54;4.70;76.80
67379;DHT22;54262;44.642;-0.974;2023-01-28T08:47:20;5.20;74.50
67379;DHT22;54262;44.642;-0.974;2023-01-28T08:49:45;5.40;76.80
67379;DHT22;54262;44.642;-0.974;2023-01-28T08:52:11;4.90;75.80
67379;DHT22;54262;44.642;-0.974;2023-01-28T08:54:37;4.70;75.50
67379;DHT22;54262;44.642;-0.974;2023-01-28T08:57:03;4.60;76.80
67379;DHT22;54262;44.642;-0.974;2023-01-28T08:59:29;4.60;77.40
67379;DHT22;54262;44.642;-0.974;2023-01-28T09:01:54;4.60;77.00
67379;DHT22;54262;44.642;-0.974;2023-01-28T09:04:20;5.00;79.30
67379;DHT22;54262;44.642;-0.974;2023-01-28T09:06:45;4.90;75.60
67379;DHT22;54262;44.642;-0.974;2023-01-28T09:09:11;4.90;76.80
67379;DHT22;54262;44.642;-0.974;2023-01-28T09:11:37;4.80;75.50
67379;DHT22;54262;44.642;-0.974;2023-01-28T09:14:02;5.00;74.80
67379;DHT22;54262;44.642;-0.974;2023-01-28T09:16:28;4.80;75.80
67379;DHT22;54262;44.642;-0.974;2023-01-28T09:18:54;4.70;76.00
67379;DHT22;54262;44.642;-0.974;2023-01-28T09:21:20;4.70;76.50
67379;DHT22;54262;44.642;-0.974;2023-01-28T09:23:46;4.70;76.60
67379;DHT22;54262;44.642;-0.974;2023-01-28T09:26:11;4.90;76.40
67379;DHT22;54262;44.642;-0.974;2023-01-28T09:28:37;4.90;76.00
67379;DHT22;54262;44.642;-0.974;2023-01-28T09:31:07;4.90;75.70
67379;DHT22;54262;44.642;-0.974;2023-01-28T09:33:33;5.00;75.90
67379;DHT22;54262;44.642;-0.974;2023-01-28T09:36:00;4.90;77.10
67379;DHT22;54262;44.642;-0.974;2023-01-28T09:38:26;4.90;76.00
67379;DHT22;54262;44.642;-0.974;2023-01-28T09:40:52;4.90;75.90
67379;DHT22;54262;44.642;-0.974;2023-01-28T09:43:42;4.90;76.10
67379;DHT22;54262;44.642;-0.974;2023-01-28T09:46:12;5.00;77.30
67379;DHT22;54262;44.642;-0.974;2023-01-28T09:48:44;5.30;75.80
67379;DHT22;54262;44.642;-0.974;2023-01-28T09:51:37;5.90;77.30
67379;DHT22;54262;44.642;-0.974;2023-01-28T09:54:14;5.20;74.10
67379;DHT22;54262;44.642;-0.974;2023-01-28T09:56:46;5.10;75.40
67379;DHT22;54262;44.642;-0.974;2023-01-28T09:59:19;5.30;75.80
67379;DHT22;54262;44.642;-0.974;2023-01-28T10:04:17;5.40;74.60
67379;DHT22;54262;44.642;-0.974;2023-01-28T10:10:01;5.90;72.80
67379;DHT22;54262;44.642;-0.974;2023-01-28T10:17:45;5.20;76.00
67379;DHT22;54262;44.642;-0.974;2023-01-28T10:22:44;5.00;77.10
67379;DHT22;54262;44.642;-0.974;2023-01-28T10:25:31;5.30;75.30
67379;DHT22;54262;44.642;-0.974;2023-01-28T10:27:57;5.00;76.70
67379;DHT22;54262;44.642;-0.974;2023-01-28T10:30:28;5.00;77.30
67379;DHT22;54262;44.642;-0.974;2023-01-28T10:33:21;5.00;77.50
67379;DHT22;54262;44.642;-0.974;2023-01-28T10:35:48;5.30;75.80
67379;DHT22;54262;44.642;-0.974;2023-01-28T10:38:18;5.00;77.00
67379;DHT22;54262;44.642;-0.974;2023-01-28T10:40:44;5.20;76.60
67379;DHT22;54262;44.642;-0.974;2023-01-28T10:43:15;5.00;77.40
67379;DHT22;54262;44.642;-0.974;2023-01-28T10:45:56;5.10;78.60
67379;DHT22;54262;44.642;-0.974;2023-01-28T10:48:27;5.10;77.70
67379;DHT22;54262;44.642;-0.974;2023-01-28T10:50:58;5.20;79.20
67379;DHT22;54262;44.642;-0.974;2023-01-28T10:53:40;5.20;78.40
67379;DHT22;54262;44.642;-0.974;2023-01-28T10:56:08;5.20;78.30
67379;DHT22;54262;44.642;-0.974;2023-01-28T10:58:45;5.10;79.00
67379;DHT22;54262;44.642;-0.974;2023-01-28T11:01:11;5.10;78.30
67379;DHT22;54262;44.642;-0.974;2023-01-28T11:03:37;5.20;79.00
67379;DHT22;54262;44.642;-0.974;2023-01-28T11:06:04;5.20;77.60
67379;DHT22;54262;44.642;-0.974;2023-01-28T11:08:30;5.10;77.40
67379;DHT22;54262;44.642;-0.974;2023-01-28T11:10:56;5.20;76.00
67379;DHT22;54262;44.642;-0.974;2023-01-28T11:13:27;5.50;75.30
67379;DHT22;54262;44.642;-0.974;2023-01-28T11:16:15;5.60;75.20
67379;DHT22;54262;44.642;-0.974;2023-01-28T11:18:51;5.70;75.60
67379;DHT22;54262;44.642;-0.974;2023-01-28T11:21:26;5.70;74.00
67379;DHT22;54262;44.642;-0.974;2023-01-28T11:24:04;5.80;74.00
67379;DHT22;54262;44.642;-0.974;2023-01-28T11:26:36;5.90;72.20
67379;DHT22;54262;44.642;-0.974;2023-01-28T11:29:03;5.70;73.50
67379;DHT22;54262;44.642;-0.974;2023-01-28T11:31:36;6.00;73.30
67379;DHT22;54262;44.642;-0.974;2023-01-28T11:34:04;6.30;71.70
67379;DHT22;54262;44.642;-0.974;2023-01-28T11:36:32;6.40;70.70
67379;DHT22;54262;44.642;-0.974;2023-01-28T11:38:59;6.00;70.20
67379;DHT22;54262;44.642;-0.974;2023-01-28T11:41:34;6.50;69.30
67379;DHT22;54262;44.642;-0.974;2023-01-28T11:44:18;6.30;70.00
67379;DHT22;54262;44.642;-0.974;2023-01-28T12:01:13;7.20;64.50
67379;DHT22;54262;44.642;-0.974;2023-01-28T12:03:51;6.60;65.60
67379;DHT22;54262;44.642;-0.974;2023-01-28T12:06:45;6.60;66.20
67379;DHT22;54262;44.642;-0.974;2023-01-28T12:09:32;6.60;66.30
67379;DHT22;54262;44.642;-0.974;2023-01-28T12:23:15;6.30;67.60
67379;DHT22;54262;44.642;-0.974;2023-01-28T12:31:49;6.60;67.00
67379;DHT22;54262;44.642;-0.974;2023-01-28T12:42:23;6.50;65.10
67379;DHT22;54262;44.642;-0.974;2023-01-28T12:45:11;6.90;66.10
67379;DHT22;54262;44.642;-0.974;2023-01-28T12:47:39;6.80;63.00
67379;DHT22;54262;44.642;-0.974;2023-01-28T12:50:22;6.40;64.80
67379;DHT22;54262;44.642;-0.974;2023-01-28T12:53:16;6.50;63.40
67379;DHT22;54262;44.642;-0.974;2023-01-28T12:59:01;6.20;63.70
67379;DHT22;54262;44.642;-0.974;2023-01-28T13:04:08;6.30;67.00
67379;DHT22;54262;44.642;-0.974;2023-01-28T13:06:41;6.30;64.20
67379;DHT22;54262;44.642;-0.974;2023-01-28T13:09:27;6.30;65.80
67379;DHT22;54262;44.642;-0.974;2023-01-28T13:11:57;6.30;65.30
67379;DHT22;54262;44.642;-0.974;2023-01-28T13:14:28;6.20;65.70
67379;DHT22;54262;44.642;-0.974;2023-01-28T13:16:55;6.40;65.50
67379;DHT22;54262;44.642;-0.974;2023-01-28T13:19:23;6.30;66.00
67379;DHT22;54262;44.642;-0.974;2023-01-28T13:21:49;6.50;66.70
67379;DHT22;54262;44.642;-0.974;2023-01-28T13:31:54;6.30;67.10
67379;DHT22;54262;44.642;-0.974;2023-01-28T13:34:40;6.30;66.80
67379;DHT22;54262;44.642;-0.974;2023-01-28T13:40:24;6.20;67.90
67379;DHT22;54262;44.642;-0.974;2023-01-28T13:46:00;6.60;67.70
67379;DHT22;54262;44.642;-0.974;2023-01-28T13:48:30;6.40;67.10
67379;DHT22;54262;44.642;-0.974;2023-01-28T13:50:57;6.60;66.60
67379;DHT22;54262;44.642;-0.974;2023-01-28T13:53:32;7.20;66.70
67379;DHT22;54262;44.642;-0.974;2023-01-28T13:56:08;6.90;67.00
67379;DHT22;54262;44.642;-0.974;2023-01-28T14:10:36;6.40;68.80
67379;DHT22;54262;44.642;-0.974;2023-01-28T14:13:28;6.90;68.50
67379;DHT22;54262;44.642;-0.974;2023-01-28T14:18:30;6.70;67.60
67379;DHT22;54262;44.642;-0.974;2023-01-28T14:21:01;6.70;66.50
67379;DHT22;54262;44.642;-0.974;2023-01-28T14:23:27;6.80;66.60
67379;DHT22;54262;44.642;-0.974;2023-01-28T14:26:04;6.40;68.40
67379;DHT22;54262;44.642;-0.974;2023-01-28T14:28:47;6.70;70.70
67379;DHT22;54262;44.642;-0.974;2023-01-28T14:31:37;7.20;68.40
67379;DHT22;54262;44.642;-0.974;2023-01-28T14:36:48;6.60;70.70
67379;DHT22;54262;44.642;-0.974;2023-01-28T14:39:26;6.60;70.40
67379;DHT22;54262;44.642;-0.974;2023-01-28T14:41:53;6.10;72.70
67379;DHT22;54262;44.642;-0.974;2023-01-28T14:44:35;6.00;73.00
67379;DHT22;54262;44.642;-0.974;2023-01-28T14:58:28;5.90;73.80
67379;DHT22;54262;44.642;-0.974;2023-01-28T15:00:59;5.80;76.40
67379;DHT22;54262;44.642;-0.974;2023-01-28T15:03:26;5.70;75.50
67379;DHT22;54262;44.642;-0.974;2023-01-28T15:06:11;5.80;78.40
67379;DHT22;54262;44.642;-0.974;2023-01-28T15:08:38;5.70;76.90
67379;DHT22;54262;44.642;-0.974;2023-01-28T15:11:05;5.60;78.40
67379;DHT22;54262;44.642;-0.974;2023-01-28T15:13:36;5.50;79.70
67379;DHT22;54262;44.642;-0.974;2023-01-28T15:16:04;5.60;79.20
67379;DHT22;54262;44.642;-0.974;2023-01-28T15:18:41;5.50;79.60
67379;DHT22;54262;44.642;-0.974;2023-01-28T15:21:08;5.50;79.30
67379;DHT22;54262;44.642;-0.974;2023-01-28T15:23:40;5.50;78.60
67379;DHT22;54262;44.642;-0.974;2023-01-28T15:26:14;5.90;77.00
67379;DHT22;54262;44.642;-0.974;2023-01-28T15:28:42;5.80;76.80
67379;DHT22;54262;44.642;-0.974;2023-01-28T15:31:21;5.60;77.60
67379;DHT22;54262;44.642;-0.974;2023-01-28T15:34:22;5.70;77.00
67379;DHT22;54262;44.642;-0.974;2023-01-28T15:36:58;6.20;74.50
67379;DHT22;54262;44.642;-0.974;2023-01-28T15:39:25;5.80;76.70
67379;DHT22;54262;44.642;-0.974;2023-01-28T15:42:01;5.80;76.90
67379;DHT22;54262;44.642;-0.974;2023-01-28T15:46:59;5.70;77.20
67379;DHT22;54262;44.642;-0.974;2023-01-28T15:49:35;5.90;77.70
67379;DHT22;54262;44.642;-0.974;2023-01-28T15:52:02;5.80;76.00
67379;DHT22;54262;44.642;-0.974;2023-01-28T15:54:28;5.60;77.20
67379;DHT22;54262;44.642;-0.974;2023-01-28T15:56:55;5.80;76.80
67379;DHT22;54262;44.642;-0.974;2023-01-28T15:59:28;5.80;75.80
67379;DHT22;54262;44.642;-0.974;2023-01-28T16:02:16;6.10;76.00
67379;DHT22;54262;44.642;-0.974;2023-01-28T16:04:42;5.70;77.10
67379;DHT22;54262;44.642;-0.974;2023-01-28T16:07:08;6.10;74.90
67379;DHT22;54262;44.642;-0.974;2023-01-28T16:09:35;6.10;75.30
67379;DHT22;54262;44.642;-0.974;2023-01-28T16:12:10;6.20;75.50
67379;DHT22;54262;44.642;-0.974;2023-01-28T16:14:46;5.90;74.00
67379;DHT22;54262;44.642;-0.974;2023-01-28T16:17:26;5.60;75.10
67379;DHT22;54262;44.642;-0.974;2023-01-28T16:20:07;6.20;72.50
67379;DHT22;54262;44.642;-0.974;2023-01-28T16:22:36;6.00;72.80
67379;DHT22;54262;44.642;-0.974;2023-01-28T16:25:17;5.70;73.70
67379;DHT22;54262;44.642;-0.974;2023-01-28T16:27:48;5.60;73.50
67379;DHT22;54262;44.642;-0.974;2023-01-28T16:30:14;6.20;73.00
67379;DHT22;54262;44.642;-0.974;2023-01-28T16:32:41;6.10;71.50
67379;DHT22;54262;44.642;-0.974;2023-01-28T16:35:26;5.70;73.60
67379;DHT22;54262;44.642;-0.974;2023-01-28T16:37:52;5.50;73.40
67379;DHT22;54262;44.642;-0.974;2023-01-28T16:40:20;6.50;70.10
67379;DHT22;54262;44.642;-0.974;2023-01-28T16:42:46;6.00;70.80
67379;DHT22;54262;44.642;-0.974;2023-01-28T16:45:23;5.90;72.00
67379;DHT22;54262;44.642;-0.974;2023-01-28T16:47:50;5.80;73.10
67379;DHT22;54262;44.642;-0.974;2023-01-28T16:50:17;5.60;73.50
67379;DHT22;54262;44.642;-0.974;2023-01-28T16:52:45;5.50;73.90
67379;DHT22;54262;44.642;-0.974;2023-01-28T16:55:14;5.70;71.80
67379;DHT22;54262;44.642;-0.974;2023-01-28T16:57:41;5.50;73.30
67379;DHT22;54262;44.642;-0.974;2023-01-28T17:00:15;6.20;71.50
67379;DHT22;54262;44.642;-0.974;2023-01-28T17:02:42;5.60;72.00
67379;DHT22;54262;44.642;-0.974;2023-01-28T17:05:09;5.90;71.70
67379;DHT22;54262;44.642;-0.974;2023-01-28T17:07:36;5.70;72.70
67379;DHT22;54262;44.642;-0.974;2023-01-28T17:10:02;5.50;71.30
67379;DHT22;54262;44.642;-0.974;2023-01-28T17:12:29;5.70;71.40
67379;DHT22;54262;44.642;-0.974;2023-01-28T17:14:54;5.60;70.80
67379;DHT22;54262;44.642;-0.974;2023-01-28T17:17:20;5.70;71.10
67379;DHT22;54262;44.642;-0.974;2023-01-28T17:19:45;5.50;71.30
67379;DHT22;54262;44.642;-0.974;2023-01-28T17:22:11;5.40;71.70
67379;DHT22;54262;44.642;-0.974;2023-01-28T17:24:37;5.40;71.60
67379;DHT22;54262;44.642;-0.974;2023-01-28T17:27:02;5.40;72.10
67379;DHT22;54262;44.642;-0.974;2023-01-28T17:29:28;5.60;71.90
67379;DHT22;54262;44.642;-0.974;2023-01-28T17:31:54;5.70;70.80
67379;DHT22;54262;44.642;-0.974;2023-01-28T17:34:19;5.40;71.30
67379;DHT22;54262;44.642;-0.974;2023-01-28T17:36:45;5.50;71.40
67379;DHT22;54262;44.642;-0.974;2023-01-28T17:39:11;5.90;70.20
67379;DHT22;54262;44.642;-0.974;2023-01-28T17:41:38;6.00;70.60
67379;DHT22;54262;44.642;-0.974;2023-01-28T17:44:04;5.70;70.80
67379;DHT22;54262;44.642;-0.974;2023-01-28T17:46:30;5.40;71.50
67379;DHT22;54262;44.642;-0.974;2023-01-28T17:48:56;5.70;73.00